sensor_id;sensor_type;location;lat;lon;timestamp;P1;durP1;ratioP1;P2;durP2;ratioP2
61200;SDS011;47065;52.898;6.992;2023-08-06T00:00:41;30.42;;;17.52;;
61200;SDS011;47065;52.898;6.992;2023-08-06T00:03:06;28.27;;;16.85;;
61200;SDS011;47065;52.898;6.992;2023-08-06T00:05:32;27.65;;;17.95;;
61200;SDS011;47065;52.898;6.992;2023-08-06T00:07:57;36.70;;;19.52;;
61200;SDS011;47065;52.898;6.992;2023-08-06T00:10:23;32.42;;;19.45;;
61200;SDS011;47065;52.898;6.992;2023-08-06T00:12:49;30.40;;;18.38;;
61200;SDS011;47065;52.898;6.992;2023-08-06T00:15:14;30.58;;;18.00;;
61200;SDS011;47065;52.898;6.992;2023-08-06T00:17:40;26.00;;;16.00;;
61200;SDS011;47065;52.898;6.992;2023-08-06T00:20:06;26.02;;;15.50;;
61200;SDS011;47065;52.898;6.992;2023-08-06T00:22:35;31.00;;;16.73;;
61200;SDS011;47065;52.898;6.992;2023-08-06T00:25:02;26.88;;;15.85;;
61200;SDS011;47065;52.898;6.992;2023-08-06T00:27:29;29.48;;;15.52;;
61200;SDS011;47065;52.898;6.992;2023-08-06T00:29:54;23.55;;;14.00;;
61200;SDS011;47065;52.898;6.992;2023-08-06T00:32:20;27.42;;;15.73;;
61200;SDS011;47065;52.898;6.992;2023-08-06T00:34:46;22.75;;;14.27;;
61200;SDS011;47065;52.898;6.992;2023-08-06T00:37:14;24.25;;;14.50;;
61200;SDS011;47065;52.898;6.992;2023-08-06T00:39:41;33.00;;;18.10;;
61200;SDS011;47065;52.898;6.992;2023-08-06T00:42:08;31.45;;;15.93;;
61200;SDS011;47065;52.898;6.992;2023-08-06T00:44:34;32.13;;;15.20;;
61200;SDS011;47065;52.898;6.992;2023-08-06T00:46:59;34.03;;;17.45;;
61200;SDS011;47065;52.898;6.992;2023-08-06T00:49:26;22.33;;;14.38;;
61200;SDS011;47065;52.898;6.992;2023-08-06T00:51:52;22.73;;;14.27;;
61200;SDS011;47065;52.898;6.992;2023-08-06T00:54:17;39.65;;;18.70;;
61200;SDS011;47065;52.898;6.992;2023-08-06T00:56:43;27.20;;;15.10;;
61200;SDS011;47065;52.898;6.992;2023-08-06T00:59:09;20.98;;;14.57;;
61200;SDS011;47065;52.898;6.992;2023-08-06T01:01:36;31.02;;;15.85;;
61200;SDS011;47065;52.898;6.992;2023-08-06T01:04:02;13.98;;;11.18;;
61200;SDS011;47065;52.898;6.992;2023-08-06T01:06:47;18.48;;;12.57;;
61200;SDS011;47065;52.898;6.992;2023-08-06T01:15:11;24.15;;;12.80;;
61200;SDS011;47065;52.898;6.992;2023-08-06T01:17:45;19.38;;;14.02;;
61200;SDS011;47065;52.898;6.992;2023-08-06T01:20:11;23.20;;;15.50;;
61200;SDS011;47065;52.898;6.992;2023-08-06T01:22:36;23.25;;;14.25;;
61200;SDS011;47065;52.898;6.992;2023-08-06T01:25:02;23.42;;;14.10;;
61200;SDS011;47065;52.898;6.992;2023-08-06T01:27:28;27.70;;;16.52;;
61200;SDS011;47065;52.898;6.992;2023-08-06T01:30:24;24.42;;;15.98;;
61200;SDS011;47065;52.898;6.992;2023-08-06T01:32:53;26.55;;;18.23;;
61200;SDS011;47065;52.898;6.992;2023-08-06T01:35:23;26.38;;;16.27;;
61200;SDS011;47065;52.898;6.992;2023-08-06T01:37:51;28.63;;;18.92;;
61200;SDS011;47065;52.898;6.992;2023-08-06T01:40:17;23.83;;;16.35;;
61200;SDS011;47065;52.898;6.992;2023-08-06T01:42:43;29.05;;;16.52;;
61200;SDS011;47065;52.898;6.992;2023-08-06T01:45:09;23.70;;;17.58;;
61200;SDS011;47065;52.898;6.992;2023-08-06T01:47:35;24.90;;;17.80;;
61200;SDS011;47065;52.898;6.992;2023-08-06T01:50:01;32.42;;;19.13;;
61200;SDS011;47065;52.898;6.992;2023-08-06T01:52:27;34.15;;;21.05;;
61200;SDS011;47065;52.898;6.992;2023-08-06T01:54:54;29.27;;;19.67;;
61200;SDS011;47065;52.898;6.992;2023-08-06T01:57:20;29.45;;;18.95;;
61200;SDS011;47065;52.898;6.992;2023-08-06T01:59:45;32.35;;;19.77;;
61200;SDS011;47065;52.898;6.992;2023-08-06T02:02:11;29.77;;;19.23;;
61200;SDS011;47065;52.898;6.992;2023-08-06T02:04:37;35.47;;;19.95;;
61200;SDS011;47065;52.898;6.992;2023-08-06T02:07:03;26.55;;;18.25;;
61200;SDS011;47065;52.898;6.992;2023-08-06T02:09:29;29.52;;;19.17;;
61200;SDS011;47065;52.898;6.992;2023-08-06T02:11:54;31.90;;;20.77;;
61200;SDS011;47065;52.898;6.992;2023-08-06T02:14:20;32.10;;;18.42;;
61200;SDS011;47065;52.898;6.992;2023-08-06T02:16:46;26.25;;;18.05;;
61200;SDS011;47065;52.898;6.992;2023-08-06T02:19:11;29.48;;;18.70;;
61200;SDS011;47065;52.898;6.992;2023-08-06T02:21:37;34.78;;;20.73;;
61200;SDS011;47065;52.898;6.992;2023-08-06T02:24:03;32.55;;;19.15;;
61200;SDS011;47065;52.898;6.992;2023-08-06T02:26:28;24.00;;;17.83;;
61200;SDS011;47065;52.898;6.992;2023-08-06T02:28:54;32.65;;;20.80;;
61200;SDS011;47065;52.898;6.992;2023-08-06T02:31:20;27.45;;;18.58;;
61200;SDS011;47065;52.898;6.992;2023-08-06T02:33:45;25.52;;;17.52;;
61200;SDS011;47065;52.898;6.992;2023-08-06T02:36:11;24.70;;;18.27;;
61200;SDS011;47065;52.898;6.992;2023-08-06T02:38:38;26.90;;;18.65;;
61200;SDS011;47065;52.898;6.992;2023-08-06T02:41:04;26.40;;;17.05;;
61200;SDS011;47065;52.898;6.992;2023-08-06T02:43:30;24.30;;;17.42;;
61200;SDS011;47065;52.898;6.992;2023-08-06T02:45:59;33.08;;;19.35;;
61200;SDS011;47065;52.898;6.992;2023-08-06T02:48:26;22.63;;;16.38;;
61200;SDS011;47065;52.898;6.992;2023-08-06T02:50:51;28.10;;;18.15;;
61200;SDS011;47065;52.898;6.992;2023-08-06T02:53:17;25.92;;;17.80;;
61200;SDS011;47065;52.898;6.992;2023-08-06T02:55:46;29.75;;;17.98;;
61200;SDS011;47065;52.898;6.992;2023-08-06T02:58:13;28.85;;;18.15;;
61200;SDS011;47065;52.898;6.992;2023-08-06T03:00:39;31.13;;;19.48;;
61200;SDS011;47065;52.898;6.992;2023-08-06T03:03:05;30.48;;;19.15;;
61200;SDS011;47065;52.898;6.992;2023-08-06T03:05:31;33.50;;;19.83;;
61200;SDS011;47065;52.898;6.992;2023-08-06T03:07:56;30.95;;;18.45;;
61200;SDS011;47065;52.898;6.992;2023-08-06T03:10:22;25.00;;;16.30;;
61200;SDS011;47065;52.898;6.992;2023-08-06T03:12:48;24.00;;;17.63;;
61200;SDS011;47065;52.898;6.992;2023-08-06T03:15:13;27.50;;;16.83;;
61200;SDS011;47065;52.898;6.992;2023-08-06T03:17:39;25.30;;;19.08;;
61200;SDS011;47065;52.898;6.992;2023-08-06T03:20:05;29.33;;;18.70;;
61200;SDS011;47065;52.898;6.992;2023-08-06T03:22:31;25.58;;;17.58;;
61200;SDS011;47065;52.898;6.992;2023-08-06T03:24:57;25.63;;;18.05;;
61200;SDS011;47065;52.898;6.992;2023-08-06T03:27:22;26.33;;;18.88;;
61200;SDS011;47065;52.898;6.992;2023-08-06T03:29:49;22.45;;;16.98;;
61200;SDS011;47065;52.898;6.992;2023-08-06T03:32:17;23.85;;;16.58;;
61200;SDS011;47065;52.898;6.992;2023-08-06T03:34:43;29.20;;;18.27;;
61200;SDS011;47065;52.898;6.992;2023-08-06T03:37:09;19.48;;;16.20;;
61200;SDS011;47065;52.898;6.992;2023-08-06T03:39:34;27.38;;;17.02;;
61200;SDS011;47065;52.898;6.992;2023-08-06T03:42:00;19.92;;;16.10;;
61200;SDS011;47065;52.898;6.992;2023-08-06T03:44:26;20.40;;;15.70;;
61200;SDS011;47065;52.898;6.992;2023-08-06T03:46:53;20.23;;;15.93;;
61200;SDS011;47065;52.898;6.992;2023-08-06T03:49:18;25.13;;;16.92;;
61200;SDS011;47065;52.898;6.992;2023-08-06T03:51:44;25.75;;;16.65;;
61200;SDS011;47065;52.898;6.992;2023-08-06T03:54:10;24.27;;;16.52;;
61200;SDS011;47065;52.898;6.992;2023-08-06T03:56:35;24.40;;;17.02;;
61200;SDS011;47065;52.898;6.992;2023-08-06T03:59:01;31.80;;;19.35;;
61200;SDS011;47065;52.898;6.992;2023-08-06T04:01:26;26.83;;;17.33;;
61200;SDS011;47065;52.898;6.992;2023-08-06T04:03:52;30.90;;;18.17;;
61200;SDS011;47065;52.898;6.992;2023-08-06T04:06:18;29.52;;;18.17;;
61200;SDS011;47065;52.898;6.992;2023-08-06T04:08:43;29.83;;;19.02;;
61200;SDS011;47065;52.898;6.992;2023-08-06T04:11:09;30.83;;;18.77;;
61200;SDS011;47065;52.898;6.992;2023-08-06T04:13:35;31.02;;;20.50;;
61200;SDS011;47065;52.898;6.992;2023-08-06T04:16:03;27.85;;;18.92;;
61200;SDS011;47065;52.898;6.992;2023-08-06T04:18:29;34.20;;;19.63;;
61200;SDS011;47065;52.898;6.992;2023-08-06T04:20:55;30.27;;;18.23;;
61200;SDS011;47065;52.898;6.992;2023-08-06T04:23:22;36.42;;;20.50;;
61200;SDS011;47065;52.898;6.992;2023-08-06T04:25:48;25.95;;;16.30;;
61200;SDS011;47065;52.898;6.992;2023-08-06T04:28:13;30.42;;;19.10;;
61200;SDS011;47065;52.898;6.992;2023-08-06T04:30:39;33.67;;;18.60;;
61200;SDS011;47065;52.898;6.992;2023-08-06T04:33:05;29.45;;;17.90;;
61200;SDS011;47065;52.898;6.992;2023-08-06T04:35:30;26.27;;;16.83;;
61200;SDS011;47065;52.898;6.992;2023-08-06T04:37:56;32.45;;;18.92;;
61200;SDS011;47065;52.898;6.992;2023-08-06T04:40:22;24.58;;;15.98;;
61200;SDS011;47065;52.898;6.992;2023-08-06T04:42:47;25.92;;;17.08;;
61200;SDS011;47065;52.898;6.992;2023-08-06T04:45:14;25.40;;;16.60;;
61200;SDS011;47065;52.898;6.992;2023-08-06T04:47:40;28.70;;;18.33;;
61200;SDS011;47065;52.898;6.992;2023-08-06T04:50:05;19.98;;;15.32;;
61200;SDS011;47065;52.898;6.992;2023-08-06T04:52:31;25.77;;;16.55;;
61200;SDS011;47065;52.898;6.992;2023-08-06T04:54:57;29.27;;;16.70;;
61200;SDS011;47065;52.898;6.992;2023-08-06T04:57:23;30.13;;;18.75;;
61200;SDS011;47065;52.898;6.992;2023-08-06T04:59:48;29.83;;;18.45;;
61200;SDS011;47065;52.898;6.992;2023-08-06T05:02:14;30.40;;;20.17;;
61200;SDS011;47065;52.898;6.992;2023-08-06T05:04:40;29.98;;;16.77;;
61200;SDS011;47065;52.898;6.992;2023-08-06T05:07:05;28.15;;;18.52;;
61200;SDS011;47065;52.898;6.992;2023-08-06T05:09:31;23.38;;;17.73;;
61200;SDS011;47065;52.898;6.992;2023-08-06T05:11:57;27.92;;;19.15;;
61200;SDS011;47065;52.898;6.992;2023-08-06T05:14:23;30.30;;;19.27;;
61200;SDS011;47065;52.898;6.992;2023-08-06T05:16:48;34.10;;;19.50;;
61200;SDS011;47065;52.898;6.992;2023-08-06T05:19:14;32.38;;;20.20;;
61200;SDS011;47065;52.898;6.992;2023-08-06T05:21:40;26.70;;;18.52;;
61200;SDS011;47065;52.898;6.992;2023-08-06T05:24:05;28.95;;;19.30;;
61200;SDS011;47065;52.898;6.992;2023-08-06T05:26:31;28.88;;;19.27;;
61200;SDS011;47065;52.898;6.992;2023-08-06T05:28:56;26.65;;;18.65;;
61200;SDS011;47065;52.898;6.992;2023-08-06T05:31:22;38.40;;;22.20;;
61200;SDS011;47065;52.898;6.992;2023-08-06T05:33:48;39.35;;;22.55;;
61200;SDS011;47065;52.898;6.992;2023-08-06T05:36:13;31.65;;;21.27;;
61200;SDS011;47065;52.898;6.992;2023-08-06T05:38:39;29.92;;;20.40;;
61200;SDS011;47065;52.898;6.992;2023-08-06T05:41:04;28.17;;;20.92;;
61200;SDS011;47065;52.898;6.992;2023-08-06T05:43:30;32.55;;;20.02;;
61200;SDS011;47065;52.898;6.992;2023-08-06T05:45:56;31.13;;;20.88;;
61200;SDS011;47065;52.898;6.992;2023-08-06T05:48:22;26.15;;;19.25;;
61200;SDS011;47065;52.898;6.992;2023-08-06T05:50:49;25.00;;;18.27;;
61200;SDS011;47065;52.898;6.992;2023-08-06T05:53:16;28.30;;;19.38;;
61200;SDS011;47065;52.898;6.992;2023-08-06T05:55:42;25.88;;;19.92;;
61200;SDS011;47065;52.898;6.992;2023-08-06T05:58:08;27.48;;;18.52;;
61200;SDS011;47065;52.898;6.992;2023-08-06T06:00:33;27.23;;;19.73;;
61200;SDS011;47065;52.898;6.992;2023-08-06T06:03:00;25.35;;;18.13;;
61200;SDS011;47065;52.898;6.992;2023-08-06T06:05:26;24.35;;;18.13;;
61200;SDS011;47065;52.898;6.992;2023-08-06T06:07:52;24.48;;;17.30;;
61200;SDS011;47065;52.898;6.992;2023-08-06T06:10:17;21.73;;;17.20;;
61200;SDS011;47065;52.898;6.992;2023-08-06T06:12:43;21.25;;;16.13;;
61200;SDS011;47065;52.898;6.992;2023-08-06T06:15:09;16.98;;;14.48;;
61200;SDS011;47065;52.898;6.992;2023-08-06T06:17:34;16.75;;;14.73;;
61200;SDS011;47065;52.898;6.992;2023-08-06T06:20:00;18.85;;;14.98;;
61200;SDS011;47065;52.898;6.992;2023-08-06T06:22:26;20.80;;;15.80;;
61200;SDS011;47065;52.898;6.992;2023-08-06T06:24:52;17.67;;;13.55;;
61200;SDS011;47065;52.898;6.992;2023-08-06T06:27:17;21.67;;;15.55;;
61200;SDS011;47065;52.898;6.992;2023-08-06T06:29:43;17.48;;;14.90;;
61200;SDS011;47065;52.898;6.992;2023-08-06T06:32:08;18.40;;;14.68;;
61200;SDS011;47065;52.898;6.992;2023-08-06T06:34:34;18.95;;;16.25;;
61200;SDS011;47065;52.898;6.992;2023-08-06T06:37:00;20.17;;;16.77;;
61200;SDS011;47065;52.898;6.992;2023-08-06T06:39:26;19.95;;;15.88;;
61200;SDS011;47065;52.898;6.992;2023-08-06T06:41:51;18.58;;;15.90;;
61200;SDS011;47065;52.898;6.992;2023-08-06T06:44:17;17.58;;;15.38;;
61200;SDS011;47065;52.898;6.992;2023-08-06T06:46:45;18.13;;;15.52;;
61200;SDS011;47065;52.898;6.992;2023-08-06T06:49:11;18.58;;;15.75;;
61200;SDS011;47065;52.898;6.992;2023-08-06T06:51:36;17.55;;;14.50;;
61200;SDS011;47065;52.898;6.992;2023-08-06T06:54:02;17.92;;;15.35;;
61200;SDS011;47065;52.898;6.992;2023-08-06T06:56:28;16.75;;;13.75;;
61200;SDS011;47065;52.898;6.992;2023-08-06T06:58:53;16.35;;;14.55;;
61200;SDS011;47065;52.898;6.992;2023-08-06T07:01:19;19.88;;;13.80;;
61200;SDS011;47065;52.898;6.992;2023-08-06T07:03:44;14.57;;;12.40;;
61200;SDS011;47065;52.898;6.992;2023-08-06T07:06:10;17.38;;;12.30;;
61200;SDS011;47065;52.898;6.992;2023-08-06T07:08:37;13.93;;;12.45;;
61200;SDS011;47065;52.898;6.992;2023-08-06T07:11:03;18.10;;;14.70;;
61200;SDS011;47065;52.898;6.992;2023-08-06T07:13:30;16.98;;;13.88;;
61200;SDS011;47065;52.898;6.992;2023-08-06T07:15:56;15.95;;;13.38;;
61200;SDS011;47065;52.898;6.992;2023-08-06T07:18:22;14.93;;;13.00;;
61200;SDS011;47065;52.898;6.992;2023-08-06T07:20:49;17.48;;;12.20;;
61200;SDS011;47065;52.898;6.992;2023-08-06T07:23:15;12.73;;;11.52;;
61200;SDS011;47065;52.898;6.992;2023-08-06T07:25:40;13.55;;;11.68;;
61200;SDS011;47065;52.898;6.992;2023-08-06T07:28:06;17.42;;;15.07;;
61200;SDS011;47065;52.898;6.992;2023-08-06T07:30:32;16.40;;;12.20;;
61200;SDS011;47065;52.898;6.992;2023-08-06T07:32:57;13.98;;;12.02;;
61200;SDS011;47065;52.898;6.992;2023-08-06T07:35:23;16.27;;;14.57;;
61200;SDS011;47065;52.898;6.992;2023-08-06T07:37:49;14.27;;;12.73;;
61200;SDS011;47065;52.898;6.992;2023-08-06T07:40:14;14.65;;;12.80;;
61200;SDS011;47065;52.898;6.992;2023-08-06T07:42:40;16.52;;;13.93;;
61200;SDS011;47065;52.898;6.992;2023-08-06T07:45:06;16.45;;;12.70;;
61200;SDS011;47065;52.898;6.992;2023-08-06T07:47:32;14.45;;;12.30;;
61200;SDS011;47065;52.898;6.992;2023-08-06T07:49:58;12.80;;;11.23;;
61200;SDS011;47065;52.898;6.992;2023-08-06T07:52:24;11.25;;;10.18;;
61200;SDS011;47065;52.898;6.992;2023-08-06T07:54:50;13.00;;;11.40;;
61200;SDS011;47065;52.898;6.992;2023-08-06T07:57:15;12.50;;;11.27;;
61200;SDS011;47065;52.898;6.992;2023-08-06T07:59:41;13.40;;;12.07;;
61200;SDS011;47065;52.898;6.992;2023-08-06T08:02:07;13.60;;;12.27;;
61200;SDS011;47065;52.898;6.992;2023-08-06T08:04:33;13.73;;;12.45;;
61200;SDS011;47065;52.898;6.992;2023-08-06T08:06:58;12.73;;;11.40;;
61200;SDS011;47065;52.898;6.992;2023-08-06T08:09:24;15.07;;;12.07;;
61200;SDS011;47065;52.898;6.992;2023-08-06T08:11:50;13.27;;;11.88;;
61200;SDS011;47065;52.898;6.992;2023-08-06T08:14:15;12.25;;;11.02;;
61200;SDS011;47065;52.898;6.992;2023-08-06T08:16:41;11.75;;;10.50;;
61200;SDS011;47065;52.898;6.992;2023-08-06T08:19:07;15.30;;;10.43;;
61200;SDS011;47065;52.898;6.992;2023-08-06T08:21:32;13.10;;;11.02;;
61200;SDS011;47065;52.898;6.992;2023-08-06T08:23:59;14.32;;;12.38;;
61200;SDS011;47065;52.898;6.992;2023-08-06T08:26:25;12.75;;;11.50;;
61200;SDS011;47065;52.898;6.992;2023-08-06T08:28:52;15.50;;;12.07;;
61200;SDS011;47065;52.898;6.992;2023-08-06T08:31:18;12.70;;;11.35;;
61200;SDS011;47065;52.898;6.992;2023-08-06T08:33:44;12.00;;;10.77;;
61200;SDS011;47065;52.898;6.992;2023-08-06T08:36:10;12.85;;;10.65;;
61200;SDS011;47065;52.898;6.992;2023-08-06T08:38:35;9.75;;;8.68;;
61200;SDS011;47065;52.898;6.992;2023-08-06T08:41:01;9.52;;;8.52;;
61200;SDS011;47065;52.898;6.992;2023-08-06T08:43:27;10.95;;;9.85;;
61200;SDS011;47065;52.898;6.992;2023-08-06T08:45:54;10.70;;;9.35;;
61200;SDS011;47065;52.898;6.992;2023-08-06T08:48:21;12.38;;;9.65;;
61200;SDS011;47065;52.898;6.992;2023-08-06T08:50:48;10.75;;;9.50;;
61200;SDS011;47065;52.898;6.992;2023-08-06T08:53:15;10.45;;;9.45;;
61200;SDS011;47065;52.898;6.992;2023-08-06T08:55:42;12.50;;;9.52;;
61200;SDS011;47065;52.898;6.992;2023-08-06T08:58:09;12.05;;;9.65;;
61200;SDS011;47065;52.898;6.992;2023-08-06T09:00:35;8.63;;;7.72;;
61200;SDS011;47065;52.898;6.992;2023-08-06T09:03:01;10.02;;;8.80;;
61200;SDS011;47065;52.898;6.992;2023-08-06T09:05:31;10.30;;;9.20;;
61200;SDS011;47065;52.898;6.992;2023-08-06T09:08:00;9.65;;;7.90;;
61200;SDS011;47065;52.898;6.992;2023-08-06T09:10:28;7.07;;;6.47;;
61200;SDS011;47065;52.898;6.992;2023-08-06T09:12:54;7.63;;;6.88;;
61200;SDS011;47065;52.898;6.992;2023-08-06T09:15:23;11.50;;;7.93;;
61200;SDS011;47065;52.898;6.992;2023-08-06T09:17:50;8.60;;;7.35;;
61200;SDS011;47065;52.898;6.992;2023-08-06T09:20:17;7.32;;;6.35;;
61200;SDS011;47065;52.898;6.992;2023-08-06T09:22:42;8.02;;;7.07;;
61200;SDS011;47065;52.898;6.992;2023-08-06T09:25:09;8.85;;;8.05;;
61200;SDS011;47065;52.898;6.992;2023-08-06T09:27:38;8.63;;;7.82;;
61200;SDS011;47065;52.898;6.992;2023-08-06T09:30:08;8.68;;;7.85;;
61200;SDS011;47065;52.898;6.992;2023-08-06T09:32:45;8.18;;;7.47;;
61200;SDS011;47065;52.898;6.992;2023-08-06T09:35:17;8.43;;;7.05;;
61200;SDS011;47065;52.898;6.992;2023-08-06T09:37:44;7.38;;;6.68;;
61200;SDS011;47065;52.898;6.992;2023-08-06T09:42:55;7.07;;;6.38;;
61200;SDS011;47065;52.898;6.992;2023-08-06T09:45:22;6.60;;;5.47;;
61200;SDS011;47065;52.898;6.992;2023-08-06T09:47:56;6.68;;;5.93;;
61200;SDS011;47065;52.898;6.992;2023-08-06T09:50:22;5.05;;;4.55;;
61200;SDS011;47065;52.898;6.992;2023-08-06T09:52:53;5.45;;;5.05;;
61200;SDS011;47065;52.898;6.992;2023-08-06T09:55:20;5.72;;;4.50;;
61200;SDS011;47065;52.898;6.992;2023-08-06T09:57:47;3.92;;;3.63;;
61200;SDS011;47065;52.898;6.992;2023-08-06T10:00:14;4.55;;;3.88;;
61200;SDS011;47065;52.898;6.992;2023-08-06T10:02:40;4.90;;;4.25;;
61200;SDS011;47065;52.898;6.992;2023-08-06T10:05:07;5.10;;;3.90;;
61200;SDS011;47065;52.898;6.992;2023-08-06T10:07:34;4.28;;;3.90;;
61200;SDS011;47065;52.898;6.992;2023-08-06T10:10:00;5.40;;;3.50;;
61200;SDS011;47065;52.898;6.992;2023-08-06T10:12:28;5.63;;;3.92;;
61200;SDS011;47065;52.898;6.992;2023-08-06T10:14:59;4.43;;;3.67;;
61200;SDS011;47065;52.898;6.992;2023-08-06T10:17:26;5.00;;;3.72;;
61200;SDS011;47065;52.898;6.992;2023-08-06T10:19:53;7.15;;;3.58;;
61200;SDS011;47065;52.898;6.992;2023-08-06T10:22:22;3.30;;;3.00;;
61200;SDS011;47065;52.898;6.992;2023-08-06T10:27:29;3.50;;;3.20;;
61200;SDS011;47065;52.898;6.992;2023-08-06T10:32:52;3.40;;;3.20;;
61200;SDS011;47065;52.898;6.992;2023-08-06T10:38:07;6.55;;;4.00;;
61200;SDS011;47065;52.898;6.992;2023-08-06T10:40:33;5.00;;;3.53;;
61200;SDS011;47065;52.898;6.992;2023-08-06T10:43:00;3.58;;;3.25;;
61200;SDS011;47065;52.898;6.992;2023-08-06T10:45:26;3.72;;;2.90;;
61200;SDS011;47065;52.898;6.992;2023-08-06T10:47:54;3.15;;;2.50;;
61200;SDS011;47065;52.898;6.992;2023-08-06T10:50:23;10.93;;;3.85;;
61200;SDS011;47065;52.898;6.992;2023-08-06T10:52:50;4.63;;;3.17;;
61200;SDS011;47065;52.898;6.992;2023-08-06T10:55:28;4.20;;;2.90;;
61200;SDS011;47065;52.898;6.992;2023-08-06T10:57:54;7.03;;;3.53;;
61200;SDS011;47065;52.898;6.992;2023-08-06T11:00:24;8.05;;;4.40;;
61200;SDS011;47065;52.898;6.992;2023-08-06T11:02:50;3.85;;;3.40;;
61200;SDS011;47065;52.898;6.992;2023-08-06T11:05:17;3.25;;;2.95;;
61200;SDS011;47065;52.898;6.992;2023-08-06T11:07:43;4.40;;;2.65;;
61200;SDS011;47065;52.898;6.992;2023-08-06T11:10:10;2.47;;;2.25;;
61200;SDS011;47065;52.898;6.992;2023-08-06T11:12:37;5.75;;;2.70;;
61200;SDS011;47065;52.898;6.992;2023-08-06T11:15:03;2.60;;;2.40;;
61200;SDS011;47065;52.898;6.992;2023-08-06T11:17:30;3.10;;;2.05;;
61200;SDS011;47065;52.898;6.992;2023-08-06T11:20:01;1.98;;;1.88;;
61200;SDS011;47065;52.898;6.992;2023-08-06T11:22:29;2.22;;;2.03;;
61200;SDS011;47065;52.898;6.992;2023-08-06T11:24:54;2.25;;;2.03;;
61200;SDS011;47065;52.898;6.992;2023-08-06T11:27:20;3.83;;;1.88;;
61200;SDS011;47065;52.898;6.992;2023-08-06T11:29:46;1.48;;;1.38;;
61200;SDS011;47065;52.898;6.992;2023-08-06T11:32:11;2.85;;;1.70;;
61200;SDS011;47065;52.898;6.992;2023-08-06T11:34:38;1.35;;;1.25;;
61200;SDS011;47065;52.898;6.992;2023-08-06T11:37:04;2.15;;;1.23;;
61200;SDS011;47065;52.898;6.992;2023-08-06T11:39:32;1.67;;;1.38;;
61200;SDS011;47065;52.898;6.992;2023-08-06T11:41:58;1.40;;;1.30;;
61200;SDS011;47065;52.898;6.992;2023-08-06T11:44:29;3.22;;;1.83;;
61200;SDS011;47065;52.898;6.992;2023-08-06T11:46:59;1.77;;;1.30;;
61200;SDS011;47065;52.898;6.992;2023-08-06T11:52:18;1.38;;;1.15;;
61200;SDS011;47065;52.898;6.992;2023-08-06T11:55:27;1.67;;;1.58;;
61200;SDS011;47065;52.898;6.992;2023-08-06T11:57:39;1.70;;;1.52;;
61200;SDS011;47065;52.898;6.992;2023-08-06T12:00:12;2.17;;;1.73;;
61200;SDS011;47065;52.898;6.992;2023-08-06T12:02:39;2.70;;;1.45;;
61200;SDS011;47065;52.898;6.992;2023-08-06T12:07:44;2.03;;;1.52;;
61200;SDS011;47065;52.898;6.992;2023-08-06T12:10:12;2.17;;;1.40;;
61200;SDS011;47065;52.898;6.992;2023-08-06T12:12:38;1.40;;;1.30;;
61200;SDS011;47065;52.898;6.992;2023-08-06T12:15:04;1.70;;;1.30;;
61200;SDS011;47065;52.898;6.992;2023-08-06T12:17:33;1.40;;;1.30;;
61200;SDS011;47065;52.898;6.992;2023-08-06T12:19:59;1.13;;;1.08;;
61200;SDS011;47065;52.898;6.992;2023-08-06T12:22:25;1.45;;;1.25;;
61200;SDS011;47065;52.898;6.992;2023-08-06T12:24:51;1.92;;;1.08;;
61200;SDS011;47065;52.898;6.992;2023-08-06T12:27:17;3.28;;;1.40;;
61200;SDS011;47065;52.898;6.992;2023-08-06T12:29:43;2.17;;;1.25;;
61200;SDS011;47065;52.898;6.992;2023-08-06T12:32:10;1.20;;;1.10;;
61200;SDS011;47065;52.898;6.992;2023-08-06T12:34:37;2.10;;;1.00;;
61200;SDS011;47065;52.898;6.992;2023-08-06T12:37:04;1.50;;;1.40;;
61200;SDS011;47065;52.898;6.992;2023-08-06T12:39:30;2.70;;;1.25;;
61200;SDS011;47065;52.898;6.992;2023-08-06T12:41:57;1.77;;;1.17;;
61200;SDS011;47065;52.898;6.992;2023-08-06T12:44:23;2.63;;;1.33;;
61200;SDS011;47065;52.898;6.992;2023-08-06T12:46:50;1.35;;;1.08;;
61200;SDS011;47065;52.898;6.992;2023-08-06T12:49:17;2.42;;;1.08;;
61200;SDS011;47065;52.898;6.992;2023-08-06T12:51:43;2.22;;;1.20;;
61200;SDS011;47065;52.898;6.992;2023-08-06T12:54:08;1.30;;;1.20;;
61200;SDS011;47065;52.898;6.992;2023-08-06T12:56:34;2.22;;;1.40;;
61200;SDS011;47065;52.898;6.992;2023-08-06T12:59:00;1.15;;;1.05;;
61200;SDS011;47065;52.898;6.992;2023-08-06T13:01:25;3.60;;;1.20;;
61200;SDS011;47065;52.898;6.992;2023-08-06T13:03:51;1.85;;;1.52;;
61200;SDS011;47065;52.898;6.992;2023-08-06T13:06:16;1.50;;;1.02;;
61200;SDS011;47065;52.898;6.992;2023-08-06T13:08:42;2.78;;;1.40;;
61200;SDS011;47065;52.898;6.992;2023-08-06T13:11:08;1.85;;;1.35;;
61200;SDS011;47065;52.898;6.992;2023-08-06T13:13:34;2.40;;;1.40;;
61200;SDS011;47065;52.898;6.992;2023-08-06T13:16:00;1.25;;;1.10;;
61200;SDS011;47065;52.898;6.992;2023-08-06T13:18:26;1.50;;;0.95;;
61200;SDS011;47065;52.898;6.992;2023-08-06T13:20:55;1.45;;;1.13;;
61200;SDS011;47065;52.898;6.992;2023-08-06T13:23:21;1.52;;;1.42;;
61200;SDS011;47065;52.898;6.992;2023-08-06T13:25:46;2.72;;;1.60;;
61200;SDS011;47065;52.898;6.992;2023-08-06T13:28:12;1.33;;;1.13;;
61200;SDS011;47065;52.898;6.992;2023-08-06T13:30:39;2.97;;;1.40;;
61200;SDS011;47065;52.898;6.992;2023-08-06T13:33:10;1.63;;;1.50;;
61200;SDS011;47065;52.898;6.992;2023-08-06T13:35:36;1.30;;;1.20;;
61200;SDS011;47065;52.898;6.992;2023-08-06T13:38:02;4.45;;;1.80;;
61200;SDS011;47065;52.898;6.992;2023-08-06T13:40:28;1.65;;;1.52;;
61200;SDS011;47065;52.898;6.992;2023-08-06T13:42:55;1.48;;;1.30;;
61200;SDS011;47065;52.898;6.992;2023-08-06T13:45:21;2.72;;;1.67;;
61200;SDS011;47065;52.898;6.992;2023-08-06T13:47:47;3.85;;;1.50;;
61200;SDS011;47065;52.898;6.992;2023-08-06T13:50:13;3.30;;;1.70;;
61200;SDS011;47065;52.898;6.992;2023-08-06T13:52:38;1.52;;;1.42;;
61200;SDS011;47065;52.898;6.992;2023-08-06T13:55:04;2.88;;;1.35;;
61200;SDS011;47065;52.898;6.992;2023-08-06T13:57:31;1.65;;;1.55;;
61200;SDS011;47065;52.898;6.992;2023-08-06T13:59:57;1.40;;;1.30;;
61200;SDS011;47065;52.898;6.992;2023-08-06T14:02:23;1.63;;;1.40;;
61200;SDS011;47065;52.898;6.992;2023-08-06T14:04:48;1.55;;;1.13;;
61200;SDS011;47065;52.898;6.992;2023-08-06T14:07:14;3.45;;;1.70;;
61200;SDS011;47065;52.898;6.992;2023-08-06T14:09:40;2.85;;;1.50;;
61200;SDS011;47065;52.898;6.992;2023-08-06T14:12:07;2.67;;;1.52;;
61200;SDS011;47065;52.898;6.992;2023-08-06T14:14:33;2.88;;;1.30;;
61200;SDS011;47065;52.898;6.992;2023-08-06T14:16:59;2.10;;;1.55;;
61200;SDS011;47065;52.898;6.992;2023-08-06T14:19:25;2.33;;;1.70;;
61200;SDS011;47065;52.898;6.992;2023-08-06T14:21:50;1.73;;;1.50;;
61200;SDS011;47065;52.898;6.992;2023-08-06T14:24:16;2.22;;;1.63;;
61200;SDS011;47065;52.898;6.992;2023-08-06T14:26:42;1.75;;;1.65;;
61200;SDS011;47065;52.898;6.992;2023-08-06T14:29:08;3.63;;;1.77;;
61200;SDS011;47065;52.898;6.992;2023-08-06T14:31:33;3.08;;;2.10;;
61200;SDS011;47065;52.898;6.992;2023-08-06T14:33:59;3.85;;;2.00;;
61200;SDS011;47065;52.898;6.992;2023-08-06T14:36:25;2.90;;;1.83;;
61200;SDS011;47065;52.898;6.992;2023-08-06T14:38:52;2.45;;;1.70;;
61200;SDS011;47065;52.898;6.992;2023-08-06T14:41:17;3.05;;;1.58;;
61200;SDS011;47065;52.898;6.992;2023-08-06T14:43:43;3.70;;;2.08;;
61200;SDS011;47065;52.898;6.992;2023-08-06T14:46:08;2.05;;;1.48;;
61200;SDS011;47065;52.898;6.992;2023-08-06T14:48:34;1.98;;;1.58;;